Time;durP1;ratioP1;P1;durP2;ratioP2;P2;SDS_P1;SDS_P2;PMS_P1;PMS_P2;Temp;Humidity;BMP_temperature;BMP_pressure;BME280_temperature;BME280_humidity;BME280_pressure;Samples;Min_cycle;Max_cycle;Signal;HPM_P1;HPM_P2
2023/06/12 00:02:13;;;;;;;5.75;4.47;;;23.50;55.70;;;;;;6273586;22;20050;-81
2023/06/12 00:04:39;;;;;;;7.22;4.50;;;23.50;55.70;;;;;;6272905;22;20003;-81
2023/06/12 00:07:05;;;;;;;8.77;4.93;;;23.50;55.80;;;;;;6273552;22;20022;-81
2023/06/12 00:09:32;;;;;;;5.47;4.90;;;23.40;55.80;;;;;;6273473;22;20011;-80
2023/06/12 00:11:57;;;;;;;5.22;4.72;;;23.40;55.90;;;;;;6273009;22;20027;-80
2023/06/12 00:14:23;;;;;;;5.20;4.45;;;23.40;56.00;;;;;;6273230;22;20398;-81
2023/06/12 00:16:48;;;;;;;6.60;4.75;;;23.30;56.00;;;;;;6273521;22;20026;-80
2023/06/12 00:19:15;;;;;;;6.50;4.82;;;23.30;56.10;;;;;;6273472;22;20022;-80
2023/06/12 00:21:41;;;;;;;4.70;3.95;;;23.20;56.10;;;;;;6273461;22;20447;-81
2023/06/12 00:24:08;;;;;;;6.53;4.35;;;23.20;56.20;;;;;;6273594;22;20000;-80
2023/06/12 00:26:35;;;;;;;7.70;5.05;;;23.20;56.20;;;;;;6272942;22;20075;-81
2023/06/12 00:29:01;;;;;;;4.90;4.50;;;23.20;56.30;;;;;;6273459;22;20003;-81
2023/06/12 00:31:26;;;;;;;6.00;4.70;;;23.20;56.50;;;;;;6246206;22;20000;-81
2023/06/12 00:33:52;;;;;;;5.05;4.55;;;23.10;56.30;;;;;;6273480;22;19995;-80
2023/06/12 00:36:18;;;;;;;5.75;4.60;;;23.10;56.50;;;;;;6273140;22;20022;-81
2023/06/12 00:38:43;;;;;;;8.85;4.47;;;23.10;56.60;;;;;;6273782;22;20000;-81
2023/06/12 00:41:09;;;;;;;4.47;4.05;;;23.00;56.50;;;;;;6272952;22;20003;-82
2023/06/12 00:43:35;;;;;;;5.18;4.40;;;23.00;56.70;;;;;;6273386;22;20371;-82
2023/06/12 00:46:01;;;;;;;5.60;4.05;;;22.90;57.00;;;;;;6273388;22;20092;-80
2023/06/12 00:48:27;;;;;;;5.43;3.83;;;23.00;57.10;;;;;;6273556;22;20031;-80
2023/06/12 00:50:53;;;;;;;6.68;4.15;;;22.90;57.10;;;;;;6246201;22;20015;-82
2023/06/12 00:53:19;;;;;;;7.03;4.72;;;22.90;57.20;;;;;;6273213;22;19991;-80
2023/06/12 00:55:44;;;;;;;5.53;4.13;;;22.80;57.20;;;;;;6272521;22;20079;-81
2023/06/12 00:58:11;;;;;;;4.65;4.25;;;22.80;57.20;;;;;;6272890;22;20031;-81
2023/06/12 01:00:40;;;;;;;5.22;4.72;;;22.80;57.30;;;;;;6274060;22;20007;-81
2023/06/12 01:03:08;;;;;;;5.82;4.82;;;22.70;57.30;;;;;;6275335;22;20672;-81
2023/06/12 01:05:37;;;;;;;5.20;4.63;;;22.70;57.60;;;;;;6248110;22;20007;-81
2023/06/12 01:08:15;;;;;;;6.35;4.68;;;22.70;57.70;;;;;;6273770;22;20000;-80
2023/06/12 01:10:59;;;;;;;4.22;3.83;;;22.60;57.80;;;;;;6273734;22;20003;-81
2023/06/12 01:13:26;;;;;;;5.15;4.25;;;22.60;57.80;;;;;;6274045;22;19996;-81
2023/06/12 01:15:51;;;;;;;5.55;4.78;;;22.50;57.80;;;;;;6273646;22;20003;-81
2023/06/12 01:18:20;;;;;;;7.13;4.85;;;22.50;57.90;;;;;;6274087;22;20042;-81
2023/06/12 01:20:46;;;;;;;5.57;4.97;;;22.50;58.00;;;;;;6273915;22;19999;-81
2023/06/12 01:23:46;;;;;;;8.55;5.03;;;22.40;57.90;;;;;;6273241;22;19996;-81
2023/06/12 01:26:33;;;;;;;5.97;4.43;;;22.40;58.30;;;;;;6273799;22;20615;-81
2023/06/12 01:29:10;;;;;;;7.05;4.47;;;22.40;58.40;;;;;;6273833;22;20098;-81
2023/06/12 01:31:59;;;;;;;4.38;4.00;;;22.30;58.40;;;;;;6273470;22;20072;-81
2023/06/12 01:34:36;;;;;;;5.28;4.43;;;22.30;58.70;;;;;;6273390;22;20006;-81
2023/06/12 01:37:26;;;;;;;6.13;4.30;;;22.20;58.80;;;;;;6246116;22;20027;-81
2023/06/12 01:39:58;;;;;;;8.15;4.93;;;22.20;59.00;;;;;;6272774;22;20007;-81
2023/06/12 01:42:26;;;;;;;6.35;4.57;;;22.10;58.90;;;;;;6272881;22;20000;-81
2023/06/12 01:44:51;;;;;;;5.25;4.75;;;22.10;59.10;;;;;;6272994;22;20073;-81
2023/06/12 01:47:18;;;;;;;8.63;4.95;;;22.00;59.30;;;;;;6272675;22;20000;-81
2023/06/12 01:49:44;;;;;;;6.07;4.70;;;22.00;59.30;;;;;;6272861;22;19996;-82
2023/06/12 01:52:09;;;;;;;5.32;4.35;;;22.00;59.30;;;;;;6272410;22;20011;-81
2023/06/12 01:54:35;;;;;;;5.35;4.78;;;21.90;60.30;;;;;;6272698;22;20089;-82
2023/06/12 01:57:02;;;;;;;5.13;4.70;;;21.90;59.80;;;;;;6272843;22;20448;-81
2023/06/12 01:59:27;;;;;;;5.97;4.88;;;21.90;59.90;;;;;;6272449;22;20016;-82
2023/06/12 02:01:53;;;;;;;8.70;5.50;;;21.80;59.80;;;;;;6272621;22;20036;-82
2023/06/12 02:04:19;;;;;;;6.63;5.05;;;21.80;59.90;;;;;;6272734;22;20031;-81
2023/06/12 02:06:45;;;;;;;7.80;5.30;;;21.70;60.00;;;;;;6271852;22;20003;-81
2023/06/12 02:09:11;;;;;;;5.47;4.40;;;21.70;60.10;;;;;;6271967;22;20064;-81
2023/06/12 02:11:37;;;;;;;5.97;5.25;;;21.70;60.30;;;;;;6272212;22;20394;-81
2023/06/12 02:14:02;;;;;;;5.10;4.43;;;21.70;60.50;;;;;;6273050;22;20029;-81
2023/06/12 02:16:30;;;;;;;5.28;4.78;;;21.60;60.50;;;;;;6273103;22;20332;-81
2023/06/12 02:18:55;;;;;;;5.40;4.65;;;21.60;60.70;;;;;;6272840;22;19996;-82
2023/06/12 02:21:21;;;;;;;4.78;4.28;;;21.50;60.70;;;;;;6271610;22;20372;-82
2023/06/12 02:23:47;;;;;;;6.05;5.22;;;21.50;61.00;;;;;;6272113;22;20003;-81
2023/06/12 02:26:12;;;;;;;6.88;4.55;;;21.40;61.20;;;;;;6272238;22;20000;-82
2023/06/12 02:28:42;;;;;;;5.32;4.82;;;21.40;61.10;;;;;;6272444;22;20003;-81
2023/06/12 02:31:07;;;;;;;6.30;5.10;;;21.40;61.20;;;;;;6272386;22;20000;-82
2023/06/12 02:33:33;;;;;;;6.40;4.93;;;21.30;61.30;;;;;;6272029;22;20003;-82
2023/06/12 02:35:59;;;;;;;5.78;5.05;;;21.30;61.30;;;;;;6271913;22;20049;-81
2023/06/12 02:38:26;;;;;;;9.93;4.88;;;21.30;61.70;;;;;;6272146;22;20104;-81
2023/06/12 02:40:51;;;;;;;7.93;4.97;;;21.20;61.90;;;;;;6272201;22;20083;-81
2023/06/12 02:43:17;;;;;;;5.03;4.55;;;21.20;62.00;;;;;;6272246;22;20031;-82
2023/06/12 02:45:42;;;;;;;5.78;4.75;;;21.10;62.00;;;;;;6244786;22;20650;-81
2023/06/12 02:48:08;;;;;;;7.07;4.93;;;21.10;62.00;;;;;;6272661;22;19999;-81
2023/06/12 02:50:33;;;;;;;5.72;5.22;;;21.00;62.10;;;;;;6271608;22;19996;-81
2023/06/12 02:52:59;;;;;;;7.43;4.70;;;21.00;62.10;;;;;;6271989;22;20000;-81
2023/06/12 02:55:25;;;;;;;6.32;5.13;;;21.00;62.10;;;;;;6271849;22;20077;-81
2023/06/12 02:57:50;;;;;;;5.32;4.82;;;21.00;62.10;;;;;;6272157;22;20071;-81
2023/06/12 03:00:16;;;;;;;6.50;5.40;;;20.90;62.20;;;;;;6272180;22;20020;-81
2023/06/12 03:02:45;;;;;;;7.47;4.90;;;20.90;62.30;;;;;;6272359;22;20018;-82
2023/06/12 03:05:16;;;;;;;5.07;4.38;;;20.90;62.20;;;;;;6271645;22;20003;-82
2023/06/12 03:07:42;;;;;;;5.35;4.57;;;20.80;62.10;;;;;;6272091;22;19995;-82
2023/06/12 03:10:08;;;;;;;6.00;4.43;;;20.80;62.90;;;;;;6271862;22;20681;-81
2023/06/12 03:12:35;;;;;;;6.60;5.57;;;20.80;62.30;;;;;;6272056;22;20023;-81
2023/06/12 03:15:02;;;;;;;5.55;5.00;;;20.70;62.20;;;;;;6272231;22;20446;-81
2023/06/12 03:17:28;;;;;;;5.50;4.95;;;20.70;62.20;;;;;;6272125;22;20019;-81
2023/06/12 03:19:53;;;;;;;5.00;4.60;;;20.70;62.20;;;;;;6271307;22;20399;-81
2023/06/12 03:22:19;;;;;;;5.45;4.40;;;20.70;62.10;;;;;;6271626;22;20444;-82
2023/06/12 03:24:44;;;;;;;7.53;4.82;;;20.60;62.10;;;;;;6271717;22;20008;-81
2023/06/12 03:27:11;;;;;;;7.18;4.72;;;20.60;62.30;;;;;;6272471;22;20076;-82
2023/06/12 03:29:36;;;;;;;9.73;6.53;;;20.60;62.20;;;;;;6271764;22;20062;-81
2023/06/12 03:32:02;;;;;;;5.35;4.85;;;20.60;62.30;;;;;;6272198;22;19996;-82
2023/06/12 03:34:28;;;;;;;6.45;5.13;;;20.50;62.30;;;;;;6271006;22;20015;-81
2023/06/12 03:36:54;;;;;;;6.40;5.18;;;20.50;62.30;;;;;;6270539;22;20058;-81
2023/06/12 03:39:20;;;;;;;5.25;4.75;;;20.50;62.50;;;;;;6269199;22;20033;-81
2023/06/12 03:41:55;;;;;;;7.22;5.25;;;20.50;62.50;;;;;;6242895;22;20022;-81
2023/06/12 03:44:21;;;;;;;6.72;5.68;;;20.50;62.60;;;;;;6271194;22;20023;-81
2023/06/12 03:46:47;;;;;;;7.97;5.15;;;20.50;62.60;;;;;;6273033;22;20002;-81
2023/06/12 03:49:12;;;;;;;6.97;4.78;;;20.50;62.70;;;;;;6270169;22;20003;-82
2023/06/12 03:51:38;;;;;;;5.78;4.93;;;20.40;62.60;;;;;;6272173;22;20057;-81
2023/06/12 03:54:05;;;;;;;7.15;5.07;;;20.40;62.80;;;;;;6245594;22;20086;-82
2023/06/12 03:56:30;;;;;;;5.75;4.85;;;20.40;62.70;;;;;;6245529;22;20000;-81
2023/06/12 03:58:56;;;;;;;4.75;4.35;;;20.50;62.80;;;;;;6244888;22;20018;-81
2023/06/12 04:01:22;;;;;;;6.13;5.32;;;20.50;63.40;;;;;;6271636;22;20035;-80
2023/06/12 04:03:48;;;;;;;7.97;4.88;;;20.50;62.80;;;;;;6271198;22;19995;-81
2023/06/12 04:06:14;;;;;;;6.75;4.72;;;20.40;63.00;;;;;;6271436;22;20007;-84
2023/06/12 04:08:40;;;;;;;6.10;4.80;;;20.50;63.10;;;;;;6271701;22;20369;-83
2023/06/12 04:11:09;;;;;;;5.82;5.32;;;20.50;63.00;;;;;;6271878;22;20000;-84
2023/06/12 04:13:35;;;;;;;5.55;5.03;;;20.50;63.10;;;;;;6271829;22;19996;-82
2023/06/12 04:16:01;;;;;;;7.25;5.25;;;20.50;63.10;;;;;;6244513;22;20094;-84
2023/06/12 04:18:26;;;;;;;9.52;5.38;;;20.50;63.30;;;;;;6270925;22;20417;-83
2023/06/12 04:20:55;;;;;;;6.00;5.50;;;20.50;63.40;;;;;;6244577;22;20011;-81
2023/06/12 04:23:20;;;;;;;6.40;5.22;;;20.50;63.30;;;;;;6271647;22;20023;-81
2023/06/12 04:25:48;;;;;;;9.90;5.13;;;20.50;63.30;;;;;;6244354;22;20263;-80
2023/06/12 04:28:16;;;;;;;8.07;4.68;;;20.60;63.30;;;;;;6271621;22;20079;-81
2023/06/12 04:30:44;;;;;;;8.65;5.72;;;20.60;63.40;;;;;;6271687;22;20077;-81
2023/06/12 04:33:11;;;;;;;6.07;5.47;;;20.60;63.50;;;;;;6272936;22;20006;-80
2023/06/12 04:35:37;;;;;;;8.98;5.45;;;20.60;63.50;;;;;;6246770;22;20098;-81
2023/06/12 04:38:05;;;;;;;6.25;4.57;;;20.60;63.50;;;;;;6273662;22;20004;-81
2023/06/12 04:40:36;;;;;;;5.88;5.35;;;20.70;63.40;;;;;;6272679;22;20038;-82
2023/06/12 04:43:06;;;;;;;6.05;4.97;;;20.70;63.50;;;;;;6274875;22;20067;-81
2023/06/12 04:45:32;;;;;;;7.95;4.45;;;20.70;63.50;;;;;;6274056;22;20054;-82
2023/06/12 04:47:58;;;;;;;5.50;5.00;;;20.80;63.40;;;;;;6273311;22;20353;-82
2023/06/12 04:50:25;;;;;;;4.72;4.28;;;20.80;63.50;;;;;;6272705;22;20000;-82
2023/06/12 04:52:52;;;;;;;7.43;4.68;;;20.80;63.60;;;;;;6246312;22;20023;-81
2023/06/12 04:55:22;;;;;;;6.00;5.10;;;20.80;63.60;;;;;;6273259;22;20061;-82
2023/06/12 04:57:52;;;;;;;6.40;5.20;;;20.80;63.50;;;;;;6246439;22;20007;-82
2023/06/12 05:00:19;;;;;;;7.80;4.93;;;20.90;63.30;;;;;;6241625;23;20016;-81
2023/06/12 05:02:46;;;;;;;5.97;5.40;;;20.90;63.20;;;;;;6244424;22;19992;-82
2023/06/12 05:05:12;;;;;;;6.22;4.50;;;21.00;63.50;;;;;;6243127;22;20019;-82
2023/06/12 05:07:37;;;;;;;5.53;5.03;;;21.00;63.40;;;;;;6242544;22;20452;-82
2023/06/12 05:10:04;;;;;;;7.80;4.97;;;21.10;63.40;;;;;;6242718;22;20008;-82
2023/06/12 05:12:29;;;;;;;5.82;4.65;;;21.20;63.20;;;;;;6242475;22;19996;-82
2023/06/12 05:14:55;;;;;;;7.30;5.50;;;21.20;63.20;;;;;;6241957;22;20054;-82
2023/06/12 05:17:21;;;;;;;5.20;4.68;;;21.20;63.40;;;;;;6240735;23;20007;-81
2023/06/12 05:19:47;;;;;;;7.57;4.82;;;21.30;63.60;;;;;;6242827;22;20004;-81
2023/06/12 05:22:13;;;;;;;8.80;5.15;;;21.30;63.40;;;;;;6242474;22;19992;-82
2023/06/12 05:24:38;;;;;;;8.43;5.65;;;21.40;63.40;;;;;;6242550;22;20015;-82
2023/06/12 05:27:06;;;;;;;7.25;5.75;;;21.40;63.90;;;;;;6242505;22;20303;-82
2023/06/12 05:29:32;;;;;;;5.10;4.70;;;21.40;63.90;;;;;;6241731;22;20035;-81
2023/06/12 05:31:57;;;;;;;5.60;5.00;;;21.50;63.50;;;;;;6242285;22;20034;-82
2023/06/12 05:34:23;;;;;;;6.32;5.60;;;21.50;62.90;;;;;;6240282;23;20373;-82
2023/06/12 05:36:48;;;;;;;6.63;5.72;;;21.50;62.60;;;;;;6242311;22;20015;-81
2023/06/12 05:39:14;;;;;;;5.00;4.60;;;21.60;62.60;;;;;;6242191;22;20422;-82
2023/06/12 05:41:40;;;;;;;6.72;5.57;;;21.60;62.60;;;;;;6242056;22;20004;-82
2023/06/12 05:44:06;;;;;;;8.30;5.95;;;21.60;62.40;;;;;;6241499;22;20005;-82
2023/06/12 05:46:32;;;;;;;5.88;5.28;;;21.70;62.70;;;;;;6242116;22;19996;-81
2023/06/12 05:48:58;;;;;;;6.55;5.22;;;21.80;62.70;;;;;;6242149;22;20049;-82
2023/06/12 05:51:27;;;;;;;6.97;5.10;;;21.80;62.60;;;;;;6241866;22;20330;-81
2023/06/12 05:53:53;;;;;;;6.90;5.47;;;21.80;62.70;;;;;;6242007;22;20001;-81
2023/06/12 05:56:19;;;;;;;9.10;5.50;;;22.00;62.90;;;;;;6240033;23;20448;-81
2023/06/12 05:58:45;;;;;;;9.07;6.07;;;22.00;62.90;;;;;;6248953;22;20015;-80
2023/06/12 06:01:16;;;;;;;6.13;5.57;;;22.00;62.40;;;;;;6245018;22;20452;-80
2023/06/12 06:03:45;;;;;;;7.00;6.30;;;22.10;62.50;;;;;;6271349;22;20075;-81
2023/06/12 06:06:12;;;;;;;6.82;6.10;;;22.10;62.80;;;;;;6244342;22;20107;-81
2023/06/12 06:08:38;;;;;;;6.70;5.78;;;22.20;63.10;;;;;;6272897;22;20476;-81
2023/06/12 06:11:04;;;;;;;7.43;5.95;;;22.30;63.00;;;;;;6272411;22;19999;-82
2023/06/12 06:13:29;;;;;;;7.05;6.22;;;22.30;62.60;;;;;;6272088;22;20069;-81
2023/06/12 06:15:55;;;;;;;6.28;5.63;;;22.40;62.40;;;;;;6273691;22;19999;-81
2023/06/12 06:18:21;;;;;;;7.45;6.13;;;22.40;62.40;;;;;;6272914;22;20007;-81
2023/06/12 06:20:46;;;;;;;6.95;6.35;;;22.50;62.40;;;;;;6272453;22;20010;-80
2023/06/12 06:23:12;;;;;;;5.53;4.95;;;22.50;62.10;;;;;;6245061;22;20003;-80
2023/06/12 06:25:38;;;;;;;7.43;5.72;;;22.60;61.80;;;;;;6272561;22;20007;-81
2023/06/12 06:28:04;;;;;;;7.57;5.47;;;22.60;61.60;;;;;;6272119;22;20023;-80
2023/06/12 06:30:30;;;;;;;8.13;5.75;;;22.60;61.50;;;;;;6272262;22;20003;-81
2023/06/12 06:32:55;;;;;;;6.97;6.10;;;22.70;61.30;;;;;;6245093;22;20500;-82
2023/06/12 06:35:21;;;;;;;9.18;5.78;;;22.70;61.30;;;;;;6272208;22;20023;-83
2023/06/12 06:37:47;;;;;;;6.53;5.93;;;22.80;60.90;;;;;;6244510;22;20043;-81
2023/06/12 06:40:14;;;;;;;7.00;5.82;;;22.80;60.80;;;;;;6271607;22;20011;-82
2023/06/12 06:42:40;;;;;;;6.93;5.32;;;22.90;60.70;;;;;;6269984;22;20009;-82
2023/06/12 06:45:07;;;;;;;7.07;6.13;;;23.00;60.50;;;;;;6272101;22;20008;-81
2023/06/12 06:47:33;;;;;;;9.10;6.13;;;23.00;60.30;;;;;;6271812;22;20000;-81
2023/06/12 06:49:59;;;;;;;6.43;5.18;;;23.10;60.40;;;;;;6272131;22;20027;-81
2023/06/12 06:52:25;;;;;;;6.75;6.05;;;23.20;60.00;;;;;;6244892;22;20000;-82
2023/06/12 06:54:51;;;;;;;7.28;4.57;;;23.30;60.00;;;;;;6272052;22;20030;-81
2023/06/12 06:57:18;;;;;;;8.38;6.60;;;23.30;60.10;;;;;;6243651;22;20033;-80
2023/06/12 06:59:44;;;;;;;8.77;5.90;;;23.40;59.90;;;;;;6271023;22;20015;-81
2023/06/12 07:02:09;;;;;;;6.80;5.13;;;23.40;59.90;;;;;;6271597;22;20026;-81
2023/06/12 07:04:35;;;;;;;7.55;5.90;;;23.50;60.00;;;;;;6243867;22;20586;-81
2023/06/12 07:07:01;;;;;;;8.02;6.47;;;23.60;60.00;;;;;;6271581;22;20307;-82
2023/06/12 07:09:26;;;;;;;8.13;6.93;;;23.60;59.70;;;;;;6271180;22;20075;-82
2023/06/12 07:11:52;;;;;;;9.20;6.05;;;23.70;59.40;;;;;;6242198;22;19996;-81
2023/06/12 07:14:17;;;;;;;6.15;5.55;;;23.80;59.50;;;;;;6239831;22;20003;-81
2023/06/12 07:16:44;;;;;;;8.52;5.85;;;23.90;59.60;;;;;;6271425;22;20041;-80
2023/06/12 07:19:10;;;;;;;7.47;5.72;;;23.90;59.40;;;;;;6271714;22;20003;-81
2023/06/12 07:21:36;;;;;;;7.93;6.07;;;24.00;59.30;;;;;;6271735;22;20829;-81
2023/06/12 07:24:03;;;;;;;6.47;5.82;;;24.00;59.00;;;;;;6271521;22;20006;-80
2023/06/12 07:26:29;;;;;;;6.68;5.97;;;24.10;59.30;;;;;;6242653;22;19999;-82
2023/06/12 07:28:55;;;;;;;8.55;6.25;;;24.20;59.20;;;;;;6270606;22;20099;-82
2023/06/12 07:31:20;;;;;;;5.63;5.20;;;24.20;59.40;;;;;;6271457;22;20360;-82
2023/06/12 07:33:46;;;;;;;10.20;6.07;;;24.30;59.30;;;;;;6244648;22;20079;-81
2023/06/12 07:36:12;;;;;;;6.47;5.57;;;24.30;59.40;;;;;;6270521;22;20087;-80
2023/06/12 07:38:39;;;;;;;7.97;6.05;;;24.40;59.20;;;;;;6244359;22;20043;-81
2023/06/12 07:41:04;;;;;;;9.23;6.82;;;24.50;59.30;;;;;;6271438;22;19999;-81
2023/06/12 07:43:34;;;;;;;11.13;6.20;;;24.60;58.90;;;;;;6270568;22;20087;-81
2023/06/12 07:46:02;;;;;;;6.93;6.28;;;24.70;59.20;;;;;;6271208;22;20010;-81
2023/06/12 07:48:28;;;;;;;6.25;5.65;;;24.80;58.90;;;;;;6269943;22;20004;-80
2023/06/12 07:50:54;;;;;;;6.03;5.35;;;24.90;58.60;;;;;;6271153;22;20010;-80
2023/06/12 07:53:19;;;;;;;6.80;6.13;;;24.90;59.10;;;;;;6271302;22;20038;-79
2023/06/12 07:55:45;;;;;;;6.55;5.97;;;25.00;59.30;;;;;;6271421;22;20007;-81
2023/06/12 07:58:10;;;;;;;7.72;6.53;;;25.20;59.30;;;;;;6241960;22;20014;-80
2023/06/12 08:00:37;;;;;;;7.05;5.05;;;25.30;59.20;;;;;;6243905;22;20008;-80
2023/06/12 08:03:03;;;;;;;5.82;5.28;;;25.40;59.40;;;;;;6271474;22;20086;-79
2023/06/12 08:05:29;;;;;;;6.95;5.63;;;25.50;59.50;;;;;;6271348;22;20087;-81
2023/06/12 08:07:55;;;;;;;7.07;6.38;;;25.60;59.40;;;;;;6244546;22;20008;-81
2023/06/12 08:10:21;;;;;;;9.95;7.05;;;25.70;59.60;;;;;;6271697;22;20027;-81
2023/06/12 08:12:47;;;;;;;6.80;6.18;;;25.90;58.60;;;;;;6272704;22;20091;-81
2023/06/12 08:15:13;;;;;;;6.45;5.85;;;25.90;58.20;;;;;;6245641;22;20010;-81
2023/06/12 08:17:41;;;;;;;7.13;6.43;;;26.00;58.10;;;;;;6246304;22;20008;-80
2023/06/12 08:20:09;;;;;;;6.78;5.28;;;26.00;58.10;;;;;;6245047;22;20314;-80
2023/06/12 08:22:36;;;;;;;8.40;6.00;;;26.10;58.10;;;;;;6245655;22;20004;-81
2023/06/12 08:25:06;;;;;;;8.52;5.40;;;26.20;58.30;;;;;;6273842;22;20008;-79
2023/06/12 08:27:33;;;;;;;7.25;6.30;;;26.20;57.90;;;;;;6274885;22;20022;-80
2023/06/12 08:29:59;;;;;;;7.13;6.43;;;26.30;57.50;;;;;;6271947;22;20074;-80
2023/06/12 08:32:24;;;;;;;6.65;5.88;;;26.40;57.70;;;;;;6273043;22;20019;-80
2023/06/12 08:34:50;;;;;;;9.60;6.68;;;26.50;58.10;;;;;;6273061;22;20320;-80
2023/06/12 08:37:17;;;;;;;7.90;7.20;;;26.60;57.30;;;;;;6273228;22;20130;-80
2023/06/12 08:39:42;;;;;;;6.38;5.78;;;26.60;57.30;;;;;;6273389;22;20061;-78
2023/06/12 08:42:10;;;;;;;11.95;6.53;;;26.70;57.20;;;;;;6272792;22;20413;-81
2023/06/12 08:44:39;;;;;;;8.07;6.57;;;26.80;56.80;;;;;;6247018;22;20007;-81
2023/06/12 08:47:07;;;;;;;6.80;5.63;;;26.90;56.60;;;;;;6273969;22;20083;-81
2023/06/12 08:49:32;;;;;;;8.02;5.50;;;26.90;55.90;;;;;;6245882;22;20437;-79
2023/06/12 08:51:58;;;;;;;7.10;5.95;;;27.00;55.30;;;;;;6271782;22;19996;-79
2023/06/12 08:54:24;;;;;;;6.65;5.80;;;27.00;55.30;;;;;;6245199;22;20098;-80
2023/06/12 08:56:51;;;;;;;6.47;5.80;;;27.10;54.40;;;;;;6245685;22;20008;-79
2023/06/12 08:59:16;;;;;;;7.97;7.18;;;27.20;54.70;;;;;;6271403;22;20023;-79
2023/06/12 09:01:45;;;;;;;6.22;5.63;;;27.30;55.10;;;;;;6245054;22;20014;-78
2023/06/12 09:04:30;;;;;;;5.65;5.13;;;27.40;55.20;;;;;;6271282;22;20004;-80
2023/06/12 09:07:01;;;;;;;8.38;6.13;;;27.40;53.70;;;;;;6272475;22;20422;-80
2023/06/12 09:09:40;;;;;;;7.03;6.35;;;27.40;53.50;;;;;;6273042;22;20045;-79
2023/06/12 09:12:10;;;;;;;7.35;6.65;;;27.40;53.40;;;;;;6245704;22;20113;-80
2023/06/12 09:14:37;;;;;;;7.22;6.57;;;27.50;53.70;;;;;;6272004;22;20020;-80
2023/06/12 09:17:03;;;;;;;6.57;5.97;;;27.60;53.80;;;;;;6272667;22;19999;-80
2023/06/12 09:19:36;;;;;;;8.77;7.05;;;27.70;54.10;;;;;;6272271;22;20321;-80
2023/06/12 09:22:02;;;;;;;6.15;5.65;;;27.80;53.10;;;;;;6272497;22;20338;-81
2023/06/12 09:24:28;;;;;;;7.28;6.53;;;27.80;52.10;;;;;;6271407;22;20007;-79
2023/06/12 09:26:55;;;;;;;7.78;6.43;;;27.90;51.90;;;;;;6272669;22;20071;-79
2023/06/12 09:29:32;;;;;;;8.45;7.18;;;28.00;51.40;;;;;;6272563;22;19999;-80
2023/06/12 09:32:05;;;;;;;10.75;6.30;;;27.90;50.90;;;;;;6272412;22;19999;-80
2023/06/12 09:34:32;;;;;;;7.53;5.80;;;28.00;50.90;;;;;;6271174;22;20035;-80
2023/06/12 09:37:05;;;;;;;8.75;6.80;;;28.00;50.50;;;;;;6271842;22;20083;-80
2023/06/12 09:39:31;;;;;;;7.60;6.88;;;28.00;49.80;;;;;;6272646;22;20015;-79
2023/06/12 09:41:57;;;;;;;6.88;6.25;;;28.10;50.60;;;;;;6244962;22;20011;-80
2023/06/12 09:44:28;;;;;;;9.45;6.60;;;28.10;50.30;;;;;;6271246;22;20004;-79
2023/06/12 09:46:59;;;;;;;7.20;6.47;;;28.20;50.20;;;;;;6271120;22;20000;-79
2023/06/12 09:49:25;;;;;;;6.20;5.70;;;28.30;50.50;;;;;;6244342;22;20000;-78
2023/06/12 09:51:51;;;;;;;7.40;5.57;;;28.30;49.60;;;;;;6271053;22;20010;-79
2023/06/12 09:54:19;;;;;;;6.85;6.22;;;28.40;49.60;;;;;;6271624;22;20027;-80
2023/06/12 09:56:47;;;;;;;5.85;5.28;;;28.40;49.80;;;;;;6270839;22;20071;-78
2023/06/12 09:59:18;;;;;;;6.07;5.47;;;28.40;48.20;;;;;;6273077;22;20023;-80
2023/06/12 10:01:59;;;;;;;5.78;5.00;;;28.40;46.90;;;;;;6271674;22;20000;-77
2023/06/12 10:04:33;;;;;;;6.63;5.45;;;28.50;47.30;;;;;;6271547;22;20159;-77
2023/06/12 10:07:15;;;;;;;6.75;4.82;;;28.50;47.80;;;;;;6270248;22;20066;-79
2023/06/12 10:09:42;;;;;;;8.38;5.55;;;28.60;47.30;;;;;;6244645;22;20448;-79
2023/06/12 10:12:10;;;;;;;7.38;6.05;;;28.60;46.70;;;;;;6271438;22;20014;-78
2023/06/12 10:14:37;;;;;;;8.60;5.70;;;28.60;46.00;;;;;;6271311;22;20004;-78
2023/06/12 10:17:04;;;;;;;7.63;5.55;;;28.70;46.70;;;;;;6271573;22;20432;-77
2023/06/12 10:19:31;;;;;;;8.85;5.28;;;28.70;46.40;;;;;;6270082;22;20169;-80
2023/06/12 10:21:57;;;;;;;9.30;6.13;;;28.80;46.80;;;;;;6268032;22;20365;-79
2023/06/12 10:24:23;;;;;;;10.10;5.22;;;28.90;45.60;;;;;;6271081;22;20102;-77
2023/06/12 10:26:51;;;;;;;5.38;4.85;;;28.90;44.90;;;;;;6271049;22;20007;-77
2023/06/12 10:29:33;;;;;;;6.78;4.88;;;28.80;43.10;;;;;;6269705;22;20067;-79
2023/06/12 10:32:30;;;;;;;5.82;5.28;;;28.80;42.60;;;;;;6270567;22;20333;-78
2023/06/12 10:34:56;;;;;;;5.60;4.93;;;28.80;44.20;;;;;;6269175;22;20541;-81
2023/06/12 10:37:33;;;;;;;6.63;5.68;;;28.80;44.20;;;;;;6271394;22;20443;-78
2023/06/12 10:40:15;;;;;;;5.95;5.45;;;28.80;44.50;;;;;;6270116;22;20010;-79
2023/06/12 10:42:48;;;;;;;5.00;4.55;;;28.90;45.00;;;;;;6271834;22;20063;-79
2023/06/12 10:45:22;;;;;;;4.90;4.50;;;29.00;45.90;;;;;;6271991;22;20007;-79
2023/06/12 10:48:05;;;;;;;5.93;5.05;;;29.20;45.50;;;;;;6272046;22;20038;-80
2023/06/12 10:50:46;;;;;;;;;;;29.30;44.90;;;;;;6271113;22;20014;-78
2023/06/12 10:53:20;;;;;;;7.20;6.10;;;29.30;45.10;;;;;;6271471;22;19957;-79
2023/06/12 10:55:45;;;;;;;8.15;6.03;;;29.30;45.20;;;;;;6271740;22;20046;-79
2023/06/12 10:58:15;;;;;;;6.78;4.88;;;29.20;44.80;;;;;;6271654;22;19999;-78
2023/06/12 11:00:49;;;;;;;5.78;5.28;;;29.10;45.40;;;;;;6271443;22;20003;-80
2023/06/12 11:03:17;;;;;;;6.25;5.68;;;29.20;45.40;;;;;;6269850;22;19999;-79
2023/06/12 11:05:48;;;;;;;6.15;5.65;;;29.20;45.90;;;;;;6271361;22;20014;-79
2023/06/12 11:08:14;;;;;;;6.43;5.80;;;29.20;45.90;;;;;;6271391;22;20483;-80
2023/06/12 11:10:40;;;;;;;6.63;6.13;;;29.30;46.20;;;;;;6271227;22;20437;-79
2023/06/12 11:13:05;;;;;;;6.13;5.63;;;29.30;46.50;;;;;;6269926;22;20013;-79
2023/06/12 11:15:50;;;;;;;9.80;6.18;;;29.40;47.00;;;;;;6271542;22;19995;-79
2023/06/12 11:18:15;;;;;;;7.00;6.25;;;29.50;46.90;;;;;;6270873;22;20000;-80
2023/06/12 11:20:41;;;;;;;8.23;5.70;;;29.60;47.10;;;;;;6271356;22;20007;-80
2023/06/12 11:23:07;;;;;;;10.30;5.70;;;29.60;47.10;;;;;;6269982;22;20011;-79
2023/06/12 11:25:35;;;;;;;5.80;5.40;;;29.60;47.00;;;;;;6271043;22;20330;-77
2023/06/12 11:28:02;;;;;;;6.78;6.22;;;29.60;46.90;;;;;;6271425;22;20023;-79
2023/06/12 11:30:27;;;;;;;7.90;5.30;;;29.60;47.60;;;;;;6271637;22;20398;-78
2023/06/12 11:32:53;;;;;;;8.52;5.75;;;29.70;48.50;;;;;;6271075;22;20003;-79
2023/06/12 11:35:19;;;;;;;6.63;6.03;;;29.70;48.20;;;;;;6269232;22;20037;-79
2023/06/12 11:37:45;;;;;;;6.97;5.50;;;29.80;48.40;;;;;;6244291;22;20000;-80
2023/06/12 11:40:12;;;;;;;6.55;5.95;;;29.80;48.80;;;;;;6243381;22;20007;-79
2023/06/12 11:42:40;;;;;;;6.13;5.55;;;29.90;48.50;;;;;;6272929;22;20045;-80
2023/06/12 11:45:15;;;;;;;6.82;6.15;;;29.90;48.00;;;;;;6271363;22;20004;-80
2023/06/12 11:47:45;;;;;;;6.45;5.93;;;30.00;47.90;;;;;;6272797;22;20306;-79
2023/06/12 11:50:13;;;;;;;6.57;5.95;;;30.00;48.50;;;;;;6273154;22;20000;-76
2023/06/12 11:52:40;;;;;;;6.28;5.68;;;30.00;48.10;;;;;;6273392;22;20448;-80
2023/06/12 11:55:10;;;;;;;5.82;5.28;;;30.00;47.90;;;;;;6273454;22;20006;-79
2023/06/12 11:57:36;;;;;;;6.80;5.85;;;29.90;48.30;;;;;;6272306;22;19996;-78
2023/06/12 12:00:13;;;;;;;6.57;5.93;;;30.00;48.90;;;;;;6272844;22;20860;-77
2023/06/12 12:02:49;;;;;;;6.35;5.75;;;30.00;48.80;;;;;;6245317;22;20086;-77
2023/06/12 12:05:20;;;;;;;6.63;5.93;;;29.90;48.90;;;;;;6272847;22;20000;-75
2023/06/12 12:07:55;;;;;;;7.90;5.65;;;29.90;48.90;;;;;;6272060;22;20004;-76
2023/06/12 12:10:22;;;;;;;6.70;5.80;;;30.00;48.60;;;;;;6274182;22;20019;-79
2023/06/12 12:12:49;;;;;;;6.47;5.47;;;30.00;48.30;;;;;;6246277;22;20010;-77
2023/06/12 12:15:16;;;;;;;6.95;6.15;;;30.20;48.10;;;;;;6272921;22;20004;-81
2023/06/12 12:17:43;;;;;;;6.53;5.93;;;30.20;47.80;;;;;;6271976;22;20018;-79
2023/06/12 12:20:20;;;;;;;5.88;5.35;;;30.20;47.70;;;;;;6272726;22;20000;-78
2023/06/12 12:22:48;;;;;;;5.70;5.13;;;30.20;48.30;;;;;;6273511;22;20509;-82
2023/06/12 12:25:18;;;;;;;6.68;5.80;;;30.20;47.60;;;;;;6273262;22;20409;-80
2023/06/12 12:27:45;;;;;;;5.63;5.15;;;30.30;47.70;;;;;;6246613;22;20094;-79
2023/06/12 12:30:14;;;;;;;8.77;5.20;;;30.30;47.50;;;;;;6271230;22;19996;-81
2023/06/12 12:32:41;;;;;;;5.85;5.13;;;30.50;47.70;;;;;;6272267;22;20495;-78
2023/06/12 12:35:07;;;;;;;6.10;5.50;;;30.60;47.50;;;;;;6272794;22;20011;-79
2023/06/12 12:37:33;;;;;;;5.53;5.05;;;30.80;47.70;;;;;;6271357;22;20011;-79
2023/06/12 12:39:58;;;;;;;6.40;5.90;;;30.90;47.60;;;;;;6270649;22;20008;-81
2023/06/12 12:42:24;;;;;;;5.60;5.10;;;30.90;47.10;;;;;;6272218;22;20333;-81
2023/06/12 12:44:51;;;;;;;6.05;5.45;;;31.00;47.00;;;;;;6244492;22;20000;-82
2023/06/12 12:47:16;;;;;;;6.20;5.70;;;30.90;47.10;;;;;;6272372;22;20074;-81
2023/06/12 12:49:42;;;;;;;6.22;5.63;;;30.90;47.10;;;;;;6271783;22;20355;-79
2023/06/12 12:52:07;;;;;;;6.20;5.60;;;30.80;47.20;;;;;;6270535;22;20071;-79